Date,TemperatureHighF,TemperatureAvgF,TemperatureLowF,DewpointHighF,DewpointAvgF,DewpointLowF,HumidityHigh,HumidityAvg,HumidityLow,PressureMaxIn,PressureMinIn,WindSpeedMaxMPH,WindSpeedAvgMPH,GustSpeedMaxMPH,PrecipitationSumIn
2012-12-1,47,39,33,40,34,28,91,83,75,29.77,29.67,0,0,0,0.00
2012-12-2,54,45,34,45,40,32,93,84,69,29.71,29.45,0,0,0,0.00
2012-12-3,68,56,45,56,50,42,92,80,63,29.58,29.46,0,0,0,0.00
2012-12-4,72,61,51,57,52,49,91,75,56,29.55,29.36,0,0,0,0.00
2012-12-5,59,49,35,50,34,23,72,56,42,29.63,29.33,0,0,0,0.00
2012-12-6,44,34,27,26,23,21,78,65,47,29.69,29.55,0,0,0,0.00
2012-12-7,49,42,34,42,36,27,89,81,72,29.53,29.30,0,0,0,0.19
2012-12-8,59,50,42,49,45,40,92,84,71,29.35,29.21,0,0,0,0.00
2012-12-9,50,47,45,47,45,43,95,93,89,29.51,29.31,0,0,0,0.32
2012-12-10,59,54,45,58,52,43,95,94,80,29.27,28.91,0,0,0,0.03
2012-12-11,48,43,35,42,34,28,81,71,56,29.55,29.05,0,0,0,0.00
2012-12-12,45,37,32,33,29,27,88,74,57,29.75,29.54,0,0,0,0.00
2012-12-13,46,34,27,29,25,23,88,71,47,29.78,29.66,0,0,0,0.00
2012-12-14,52,36,24,30,26,21,88,68,40,29.64,29.53,0,0,0,0.00
2012-12-15,53,41,30,35,31,26,86,69,47,29.62,29.45,0,0,0,0.00
2012-12-16,51,47,43,43,41,35,91,81,70,29.44,29.18,0,0,0,0.00
2012-12-17,51,48,45,48,46,43,94,92,90,29.18,28.88,0,0,0,0.05
2012-12-18,57,47,38,49,40,30,94,77,60,29.14,28.86,0,0,0,0.03
2012-12-19,51,43,34,38,34,30,85,71,59,29.49,29.12,0,0,0,0.00
2012-12-20,47,40,33,44,35,30,93,82,62,29.52,28.77,0,0,0,0.38
2012-12-21,53,40,36,51,31,25,94,70,60,28.87,28.62,0,0,0,0.32
2012-12-22,40,36,32,24,23,21,66,57,48,29.33,28.89,0,0,0,0.00
2012-12-23,46,35,25,25,21,18,77,59,37,29.37,29.21,0,0,0,0.00
2012-12-24,39,33,28,30,27,22,91,80,63,29.39,29.22,0,0,0,0.00
2012-12-25,45,36,31,38,32,29,93,86,69,29.58,29.24,0,0,0,0.32
2012-12-26,36,33,31,34,30,26,94,88,79,29.57,28.76,0,0,0,0.35
2012-12-27,39,36,34,34,29,26,94,77,64,29.32,28.76,0,0,0,0.27
2012-12-28,43,35,30,29,27,25,84,72,56,29.46,29.33,0,0,0,0.00
2012-12-29,40,35,31,35,30,26,88,83,71,29.33,28.91,0,0,0,0.14
2012-12-30,38,34,28,27,23,19,72,64,52,29.62,29.15,0,0,0,0.00
2012-12-31,37,32,24,26,23,18,81,69,59,29.62,29.31,0,0,0,0.00